THY7UJ LTCI-LTFM
Flight info
| Callsign | THY7UJ |
|---|---|
| Flight time | N/A |
| Altitude | 36000 |
| Route | BEYAZ UG81 EZS UG8 GEM UT32 BUK UA4 ERSEN |
| Aircraft | B738/M-SDE2E3FGHIRWXY/LB1 |
Departure
| Time | 2026-05-04 09:43 |
|---|---|
| Airport | Van Ferit Melen Airport (LTCI) |
Arrival
| Time | N/A |
|---|---|
| Airport | İstanbul Airport (LTFM) |
| Time | Latitude | Longitude | Altitude | Speed | Heading |
|---|---|---|---|---|---|
| 2026-05-04 09:30 | 38.46932 | 43.33713 | 5477 ft | 0 kts | 128° |
| 2026-05-04 09:34 | 38.46939 | 43.33701 | 5478 ft | 2 kts | 128° |
| 2026-05-04 09:35 | 38.46949 | 43.33685 | 5478 ft | 2 kts | 128° |
| 2026-05-04 09:35 | 38.46959 | 43.33668 | 5479 ft | 2 kts | 99° |
| 2026-05-04 09:35 | 38.46955 | 43.33648 | 5479 ft | 2 kts | 52° |
| 2026-05-04 09:35 | 38.46944 | 43.33633 | 5479 ft | 2 kts | 40° |
| 2026-05-04 09:37 | 38.46937 | 43.33626 | 5480 ft | 0 kts | 38° |
| 2026-05-04 09:38 | 38.46941 | 43.33630 | 5479 ft | 2 kts | 38° |
| 2026-05-04 09:38 | 38.46963 | 43.33652 | 5479 ft | 6 kts | 38° |
| 2026-05-04 09:39 | 38.47004 | 43.33694 | 5481 ft | 9 kts | 38° |
| 2026-05-04 09:39 | 38.47060 | 43.33749 | 5483 ft | 11 kts | 37° |
| 2026-05-04 09:39 | 38.47123 | 43.33774 | 5480 ft | 10 kts | 327° |
| 2026-05-04 09:39 | 38.47168 | 43.33705 | 5484 ft | 10 kts | 308° |
| 2026-05-04 09:40 | 38.47215 | 43.33644 | 5484 ft | 10 kts | 340° |
| 2026-05-04 09:40 | 38.47278 | 43.33676 | 5481 ft | 11 kts | 36° |
| 2026-05-04 09:40 | 38.47345 | 43.33742 | 5482 ft | 14 kts | 38° |
| 2026-05-04 09:40 | 38.47432 | 43.33827 | 5483 ft | 18 kts | 37° |
| 2026-05-04 09:41 | 38.47542 | 43.33935 | 5480 ft | 22 kts | 37° |
| 2026-05-04 09:42 | 38.47592 | 43.33985 | 5483 ft | 61 kts | 218° |
| 2026-05-04 09:43 | 38.47077 | 43.33477 | 5486 ft | 124 kts | 217° |
| 2026-05-04 09:43 | 38.46248 | 43.32650 | 5469 ft | 176 kts | 219° |
| 2026-05-04 09:43 | 38.45239 | 43.31639 | 5945 ft | 190 kts | 219° |
| 2026-05-04 09:43 | 38.44308 | 43.30388 | 6485 ft | 203 kts | 245° |
| 2026-05-04 09:44 | 38.44135 | 43.28624 | 6994 ft | 208 kts | 285° |
| 2026-05-04 09:44 | 38.44854 | 43.27023 | 7484 ft | 214 kts | 317° |
| 2026-05-04 09:44 | 38.45994 | 43.25861 | 8255 ft | 204 kts | 315° |
| 2026-05-04 09:46 | 38.47839 | 43.10656 | 10365 ft | 318 kts | 274° |
| 2026-05-04 09:46 | 38.48067 | 43.07745 | 10549 ft | 341 kts | 274° |
| 2026-05-04 09:46 | 38.48319 | 43.04637 | 10765 ft | 361 kts | 274° |
| 2026-05-04 09:47 | 38.48590 | 43.01407 | 11272 ft | 370 kts | 274° |
| 2026-05-04 09:47 | 38.48775 | 42.99236 | 11739 ft | 372 kts | 274° |
| 2026-05-04 09:49 | 38.50729 | 42.75857 | 16485 ft | 387 kts | 272° |
| 2026-05-04 09:49 | 38.50974 | 42.72429 | 17095 ft | 390 kts | 272° |
| 2026-05-04 09:49 | 38.51211 | 42.68970 | 17675 ft | 392 kts | 272° |
| 2026-05-04 09:51 | 38.52663 | 42.47723 | 20860 ft | 408 kts | 272° |
| 2026-05-04 09:51 | 38.52912 | 42.44101 | 21323 ft | 411 kts | 271° |
| 2026-05-04 09:51 | 38.53161 | 42.40442 | 21785 ft | 414 kts | 271° |
| 2026-05-04 09:51 | 38.53407 | 42.36773 | 22243 ft | 416 kts | 271° |
| 2026-05-04 09:52 | 38.53651 | 42.33126 | 22676 ft | 418 kts | 271° |
| 2026-05-04 09:52 | 38.53898 | 42.29418 | 23110 ft | 420 kts | 271° |
| 2026-05-04 09:52 | 38.54146 | 42.25689 | 23527 ft | 422 kts | 271° |
| 2026-05-04 09:52 | 38.54394 | 42.21940 | 23917 ft | 425 kts | 271° |
| 2026-05-04 09:53 | 38.54643 | 42.18168 | 24295 ft | 428 kts | 271° |
| 2026-05-04 09:53 | 38.54894 | 42.14368 | 24681 ft | 430 kts | 271° |
| 2026-05-04 09:53 | 38.55143 | 42.10558 | 25046 ft | 432 kts | 271° |
| 2026-05-04 09:53 | 38.55392 | 42.06725 | 25423 ft | 433 kts | 271° |
| 2026-05-04 09:54 | 38.55639 | 42.02887 | 25761 ft | 434 kts | 271° |
| 2026-05-04 09:54 | 38.55887 | 41.99026 | 26071 ft | 437 kts | 271° |
| 2026-05-04 09:54 | 38.56137 | 41.95155 | 26393 ft | 438 kts | 271° |
| 2026-05-04 09:54 | 38.56385 | 41.91265 | 26702 ft | 440 kts | 271° |
| 2026-05-04 09:55 | 38.56632 | 41.87360 | 27027 ft | 442 kts | 271° |
| 2026-05-04 09:55 | 38.56878 | 41.83425 | 27327 ft | 444 kts | 270° |
| 2026-05-04 09:55 | 38.57124 | 41.79488 | 27612 ft | 446 kts | 270° |
| 2026-05-04 09:55 | 38.57368 | 41.75582 | 27909 ft | 447 kts | 270° |
| 2026-05-04 09:56 | 38.57613 | 41.71613 | 28210 ft | 448 kts | 270° |
| 2026-05-04 09:56 | 38.57858 | 41.67641 | 28572 ft | 447 kts | 270° |
| 2026-05-04 09:56 | 38.58101 | 41.63692 | 29000 ft | 445 kts | 270° |
| 2026-05-04 09:56 | 38.58342 | 41.59746 | 29399 ft | 443 kts | 270° |
| 2026-05-04 09:57 | 38.58577 | 41.55867 | 29767 ft | 443 kts | 270° |
| 2026-05-04 09:57 | 38.58813 | 41.51940 | 30184 ft | 441 kts | 270° |
| 2026-05-04 09:57 | 38.59045 | 41.48038 | 30589 ft | 439 kts | 270° |
| 2026-05-04 09:57 | 38.59276 | 41.44143 | 30854 ft | 439 kts | 270° |
| 2026-05-04 09:58 | 38.59508 | 41.40241 | 31079 ft | 440 kts | 270° |
| 2026-05-04 09:58 | 38.59750 | 41.36339 | 31407 ft | 439 kts | 270° |
| 2026-05-04 09:58 | 38.59997 | 41.32498 | 31748 ft | 438 kts | 270° |
| 2026-05-04 10:00 | 38.61709 | 41.05406 | 33734 ft | 435 kts | 270° |
| 2026-05-04 10:00 | 38.61947 | 41.01549 | 34009 ft | 434 kts | 270° |
| 2026-05-04 10:02 | 38.63536 | 40.74540 | 35415 ft | 437 kts | 270° |
| 2026-05-04 10:04 | 38.64931 | 40.47346 | 35927 ft | 437 kts | 270° |
| 2026-05-04 10:04 | 38.65321 | 40.39603 | 35939 ft | 434 kts | 270° |
| 2026-05-04 10:05 | 38.65702 | 40.31907 | 35935 ft | 433 kts | 270° |
| 2026-05-04 10:05 | 38.66078 | 40.24219 | 35938 ft | 432 kts | 269° |
| 2026-05-04 10:06 | 38.66453 | 40.16539 | 35934 ft | 433 kts | 270° |
| 2026-05-04 10:06 | 38.66829 | 40.08837 | 35926 ft | 434 kts | 269° |
| 2026-05-04 10:08 | 38.68116 | 39.81760 | 35921 ft | 438 kts | 269° |
| 2026-05-04 10:08 | 38.68475 | 39.73953 | 35922 ft | 440 kts | 269° |
| 2026-05-04 10:09 | 38.68829 | 39.66128 | 35919 ft | 441 kts | 269° |
| 2026-05-04 10:09 | 38.69179 | 39.58315 | 35922 ft | 443 kts | 269° |
| 2026-05-04 10:10 | 38.69529 | 39.50426 | 35921 ft | 444 kts | 270° |
| 2026-05-04 10:10 | 38.69893 | 39.42530 | 35913 ft | 445 kts | 270° |
| 2026-05-04 10:11 | 38.70254 | 39.34641 | 35907 ft | 445 kts | 269° |
| 2026-05-04 10:11 | 38.70506 | 39.26695 | 35807 ft | 447 kts | 269° |